Time;durP1;ratioP1;P1;durP2;ratioP2;P2;SDS_P1;SDS_P2;PMS_P1;PMS_P2;Temp;Humidity;BMP_temperature;BMP_pressure;BME280_temperature;BME280_humidity;BME280_pressure;Samples;Min_cycle;Max_cycle;Signal;HPM_P1;HPM_P2
2020/12/13 00:00:00;;;;;;;73.72;33.50;;;;;;;;;;5093916;28;20199;-76
2020/12/13 00:02:26;;;;;;;73.45;34.95;;;;;;;;;;5077615;28;20196;-74
2020/12/13 00:04:52;;;;;;;68.75;34.10;;;;;;;;;;5081668;28;20179;-75
2020/12/13 00:07:18;;;;;;;76.30;37.22;;;;;;;;;;5093985;28;20606;-73
2020/12/13 00:09:44;;;;;;;66.20;33.33;;;;;;;;;;5093565;28;20384;-75
2020/12/13 00:12:10;;;;;;;71.03;34.25;;;;;;;;;;5091358;28;20184;-73
2020/12/13 00:14:37;;;;;;;68.22;34.03;;;;;;;;;;5091492;28;20179;-74
2020/12/13 00:17:03;;;;;;;66.88;32.67;;;;;;;;;;5078228;28;20234;-77
2020/12/13 00:19:29;;;;;;;77.25;33.47;;;;;;;;;;5084828;28;20279;-74
2020/12/13 00:21:55;;;;;;;65.68;33.45;;;;;;;;;;5073395;28;20196;-74
2020/12/13 00:24:22;;;;;;;70.82;32.92;;;;;;;;;;5083863;28;20172;-77
2020/12/13 00:26:48;;;;;;;64.45;33.30;;;;;;;;;;5074369;28;20172;-76
2020/12/13 00:29:17;;;;;;;65.88;32.05;;;;;;;;;;5093784;28;20188;-78
2020/12/13 00:31:43;;;;;;;74.72;34.97;;;;;;;;;;5080786;28;20183;-74
2020/12/13 00:34:10;;;;;;;69.88;32.65;;;;;;;;;;5085971;28;20180;-78
2020/12/13 00:36:36;;;;;;;65.80;32.38;;;;;;;;;;5093624;28;20175;-73
2020/12/13 00:39:03;;;;;;;66.75;32.03;;;;;;;;;;5083300;28;20600;-75
2020/12/13 00:41:29;;;;;;;66.20;32.63;;;;;;;;;;5082029;28;20656;-76
2020/12/13 00:43:55;;;;;;;69.20;33.05;;;;;;;;;;5093044;28;20506;-76
2020/12/13 00:46:21;;;;;;;73.00;33.60;;;;;;;;;;5087633;28;20171;-77
2020/12/13 00:48:50;;;;;;;71.15;33.88;;;;;;;;;;5093811;28;20188;-75
2020/12/13 00:51:21;;;;;;;66.78;32.03;;;;;;;;;;5089742;28;20180;-76
2020/12/13 00:53:47;;;;;;;76.07;34.58;;;;;;;;;;5093578;28;20186;-76
2020/12/13 00:56:14;;;;;;;80.18;34.22;;;;;;;;;;5093079;28;20183;-74
2020/12/13 00:58:40;;;;;;;64.60;31.88;;;;;;;;;;5083147;28;20196;-77
2020/12/13 01:01:06;;;;;;;71.13;33.05;;;;;;;;;;5082864;28;20170;-76
2020/12/13 01:03:32;;;;;;;78.18;33.65;;;;;;;;;;5093237;28;20195;-76
2020/12/13 01:05:58;;;;;;;74.22;32.45;;;;;;;;;;5086311;28;20172;-75
2020/12/13 01:08:24;;;;;;;70.80;31.95;;;;;;;;;;5078442;28;20302;-74
2020/12/13 01:10:50;;;;;;;66.60;31.15;;;;;;;;;;5086097;28;20182;-76
2020/12/13 01:13:16;;;;;;;71.75;33.03;;;;;;;;;;5093365;28;20236;-74
2020/12/13 01:15:42;;;;;;;80.80;32.65;;;;;;;;;;5093784;28;20179;-75
2020/12/13 01:18:08;;;;;;;69.28;31.65;;;;;;;;;;5092097;28;20271;-75
2020/12/13 01:20:34;;;;;;;75.85;32.30;;;;;;;;;;5080344;28;20180;-76
2020/12/13 01:23:00;;;;;;;70.00;31.17;;;;;;;;;;5090368;28;20207;-75
2020/12/13 01:25:26;;;;;;;66.32;31.98;;;;;;;;;;5092692;28;20225;-74
2020/12/13 01:27:52;;;;;;;65.03;31.15;;;;;;;;;;5084618;28;20510;-74
2020/12/13 01:30:18;;;;;;;69.55;29.65;;;;;;;;;;5083043;28;20592;-76
2020/12/13 01:32:44;;;;;;;67.38;30.13;;;;;;;;;;5092895;28;20179;-74
2020/12/13 01:35:11;;;;;;;75.38;30.77;;;;;;;;;;5092072;28;20210;-77
2020/12/13 01:37:38;;;;;;;71.72;32.88;;;;;;;;;;5085317;28;20176;-75
2020/12/13 01:40:05;;;;;;;72.32;32.05;;;;;;;;;;5081495;28;20256;-74
2020/12/13 01:42:37;;;;;;;65.85;31.15;;;;;;;;;;5080820;28;20264;-77
2020/12/13 01:45:04;;;;;;;60.33;29.20;;;;;;;;;;5090117;28;20191;-75
2020/12/13 01:47:30;;;;;;;72.40;29.38;;;;;;;;;;5081149;28;20556;-73
2020/12/13 01:49:56;;;;;;;65.55;29.55;;;;;;;;;;5092496;28;20195;-75
2020/12/13 01:54:51;;;;;;;70.65;30.67;;;;;;;;;;5072267;28;20521;-76
2020/12/13 01:57:20;;;;;;;72.55;31.55;;;;;;;;;;5076687;28;20175;-77
2020/12/13 01:59:50;;;;;;;66.38;29.27;;;;;;;;;;5075898;28;20227;-75
2020/12/13 02:02:19;;;;;;;64.20;29.20;;;;;;;;;;5079980;28;20629;-76
2020/12/13 02:04:46;;;;;;;66.00;29.58;;;;;;;;;;5092243;28;20233;-75
2020/12/13 02:07:13;;;;;;;74.05;31.65;;;;;;;;;;5092455;28;20199;-76
2020/12/13 02:09:39;;;;;;;57.90;27.92;;;;;;;;;;5094044;28;20195;-76
2020/12/13 02:12:05;;;;;;;65.95;29.35;;;;;;;;;;5096423;28;20187;-76
2020/12/13 02:14:31;;;;;;;64.28;30.85;;;;;;;;;;5079121;28;20657;-75
2020/12/13 02:16:58;;;;;;;58.38;29.73;;;;;;;;;;5094819;28;20187;-76
2020/12/13 02:19:24;;;;;;;62.78;29.48;;;;;;;;;;5091524;28;20196;-76
2020/12/13 02:21:50;;;;;;;61.40;28.92;;;;;;;;;;5091587;28;20666;-75
2020/12/13 02:24:17;;;;;;;59.03;28.30;;;;;;;;;;5096367;28;20176;-74
2020/12/13 02:26:44;;;;;;;60.65;30.00;;;;;;;;;;5096498;28;20182;-73
2020/12/13 02:29:10;;;;;;;62.20;28.42;;;;;;;;;;5079634;28;20553;-78
2020/12/13 02:31:36;;;;;;;58.38;27.05;;;;;;;;;;5096448;28;20175;-74
2020/12/13 02:34:03;;;;;;;51.40;26.95;;;;;;;;;;5095564;28;20280;-75
2020/12/13 02:36:29;;;;;;;68.05;28.75;;;;;;;;;;5096051;28;20184;-77
2020/12/13 02:38:55;;;;;;;61.25;28.63;;;;;;;;;;5095493;28;20664;-75
2020/12/13 02:41:22;;;;;;;53.10;25.90;;;;;;;;;;5092384;28;20198;-74
2020/12/13 02:43:49;;;;;;;55.60;27.98;;;;;;;;;;5095659;28;20551;-75
2020/12/13 02:46:15;;;;;;;62.83;29.35;;;;;;;;;;5087079;28;20226;-78
2020/12/13 02:48:41;;;;;;;58.17;27.33;;;;;;;;;;5077414;28;20226;-73
2020/12/13 02:51:07;;;;;;;60.25;28.77;;;;;;;;;;5092909;28;20699;-76
2020/12/13 02:53:33;;;;;;;64.50;29.17;;;;;;;;;;5095296;28;20179;-77
2020/12/13 02:55:59;;;;;;;61.63;28.95;;;;;;;;;;5096251;28;20178;-77
2020/12/13 02:58:25;;;;;;;60.63;28.08;;;;;;;;;;5094813;28;20227;-78
2020/12/13 03:00:56;;;;;;;52.25;27.95;;;;;;;;;;5086862;28;20184;-74
2020/12/13 03:03:22;;;;;;;59.15;28.77;;;;;;;;;;5088348;28;20234;-75
2020/12/13 03:05:48;;;;;;;50.88;26.38;;;;;;;;;;5080892;28;20200;-75
2020/12/13 03:08:14;;;;;;;53.05;26.08;;;;;;;;;;5074982;28;20220;-74
2020/12/13 03:10:41;;;;;;;50.58;28.13;;;;;;;;;;5086629;28;20199;-77
2020/12/13 03:13:07;;;;;;;56.53;27.02;;;;;;;;;;5090981;28;20184;-75
2020/12/13 03:15:33;;;;;;;61.45;27.52;;;;;;;;;;5080669;28;20178;-73
2020/12/13 03:17:59;;;;;;;55.67;27.40;;;;;;;;;;5081318;28;20168;-76
2020/12/13 03:20:25;;;;;;;54.22;26.23;;;;;;;;;;5094331;28;20640;-76
2020/12/13 03:22:51;;;;;;;56.38;28.92;;;;;;;;;;5094145;28;20207;-74
2020/12/13 03:25:17;;;;;;;50.65;25.60;;;;;;;;;;5094990;28;20532;-74
2020/12/13 03:27:43;;;;;;;60.60;28.00;;;;;;;;;;5094898;28;20179;-76
2020/12/13 03:30:09;;;;;;;47.78;24.45;;;;;;;;;;5094828;28;20594;-72
2020/12/13 03:32:36;;;;;;;54.13;28.40;;;;;;;;;;5081660;28;20175;-75
2020/12/13 03:35:04;;;;;;;56.72;27.85;;;;;;;;;;5094291;28;20173;-76
2020/12/13 03:37:30;;;;;;;50.38;26.52;;;;;;;;;;5077652;28;20541;-74
2020/12/13 03:39:56;;;;;;;57.20;25.67;;;;;;;;;;5083337;28;20349;-73
2020/12/13 03:42:22;;;;;;;53.83;26.80;;;;;;;;;;5094499;28;20199;-72
2020/12/13 03:44:48;;;;;;;56.92;27.05;;;;;;;;;;5084254;28;20176;-75
2020/12/13 03:47:14;;;;;;;50.90;24.95;;;;;;;;;;5083761;28;20176;-75
2020/12/13 03:49:40;;;;;;;54.85;27.50;;;;;;;;;;5089336;28;20196;-72
2020/12/13 03:52:06;;;;;;;57.95;26.85;;;;;;;;;;5090737;28;20529;-75
2020/12/13 03:54:32;;;;;;;57.85;27.90;;;;;;;;;;5073821;28;20270;-73
2020/12/13 03:56:58;;;;;;;54.40;27.95;;;;;;;;;;5087353;28;20179;-74
2020/12/13 03:59:24;;;;;;;54.58;26.42;;;;;;;;;;5094016;28;20225;-76
2020/12/13 04:01:50;;;;;;;50.58;24.10;;;;;;;;;;5094309;28;20206;-77
2020/12/13 04:04:16;;;;;;;55.60;27.40;;;;;;;;;;5093335;28;20578;-73
2020/12/13 04:06:42;;;;;;;56.70;27.45;;;;;;;;;;5080754;28;20171;-75
2020/12/13 04:09:08;;;;;;;53.58;25.90;;;;;;;;;;5094463;28;20225;-75
2020/12/13 04:11:34;;;;;;;55.38;27.83;;;;;;;;;;5087790;28;20182;-76
2020/12/13 04:14:00;;;;;;;51.50;25.80;;;;;;;;;;5092212;28;20183;-75
2020/12/13 04:16:30;;;;;;;55.45;27.35;;;;;;;;;;5088517;28;20229;-75
2020/12/13 04:18:56;;;;;;;53.65;26.60;;;;;;;;;;5081961;28;20660;-74
2020/12/13 04:21:22;;;;;;;51.88;26.38;;;;;;;;;;5083866;28;20571;-74
2020/12/13 04:23:48;;;;;;;53.25;26.83;;;;;;;;;;5092830;28;20526;-76
2020/12/13 04:26:14;;;;;;;56.40;27.45;;;;;;;;;;5093403;28;20652;-75
2020/12/13 04:28:40;;;;;;;49.30;26.23;;;;;;;;;;5096351;28;20603;-72
2020/12/13 04:31:06;;;;;;;56.40;26.55;;;;;;;;;;5079505;28;20545;-75
2020/12/13 04:33:32;;;;;;;58.33;26.33;;;;;;;;;;5079154;28;20544;-73
2020/12/13 04:35:58;;;;;;;51.95;26.60;;;;;;;;;;5093654;28;20185;-76
2020/12/13 04:38:24;;;;;;;52.50;27.48;;;;;;;;;;5079827;28;20204;-74
2020/12/13 04:40:50;;;;;;;64.93;28.13;;;;;;;;;;5083199;28;20187;-74
2020/12/13 04:43:17;;;;;;;58.25;27.23;;;;;;;;;;5074019;28;20195;-73
2020/12/13 04:45:43;;;;;;;52.75;26.52;;;;;;;;;;5087833;28;20175;-75
2020/12/13 04:48:09;;;;;;;58.42;28.17;;;;;;;;;;5093389;28;20179;-75
2020/12/13 04:50:37;;;;;;;58.55;27.75;;;;;;;;;;5087771;28;20167;-76
2020/12/13 04:53:07;;;;;;;63.08;27.73;;;;;;;;;;5093283;28;20175;-73
2020/12/13 04:56:02;;;;;;;59.63;28.15;;;;;;;;;;5073072;28;20168;-74
2020/12/13 04:58:29;;;;;;;55.40;29.00;;;;;;;;;;5090077;28;20199;-77
2020/12/13 05:01:02;;;;;;;59.67;27.10;;;;;;;;;;5093503;28;20171;-74
2020/12/13 05:03:28;;;;;;;58.97;28.60;;;;;;;;;;5092698;28;20291;-77
2020/12/13 05:05:58;;;;;;;58.25;27.05;;;;;;;;;;5092454;28;20187;-75
2020/12/13 05:08:28;;;;;;;59.92;27.92;;;;;;;;;;5090393;28;20206;-74
2020/12/13 05:10:54;;;;;;;56.03;26.95;;;;;;;;;;5094157;28;20206;-76
2020/12/13 05:13:20;;;;;;;56.70;28.40;;;;;;;;;;5092826;28;20191;-75
2020/12/13 05:15:46;;;;;;;64.78;29.38;;;;;;;;;;5092815;28;20575;-77
2020/12/13 05:18:13;;;;;;;59.10;28.45;;;;;;;;;;5092428;28;20198;-75
2020/12/13 05:20:39;;;;;;;62.38;29.05;;;;;;;;;;5092859;28;20167;-75
2020/12/13 05:23:05;;;;;;;53.65;26.45;;;;;;;;;;5090130;28;20212;-74
2020/12/13 05:25:33;;;;;;;54.88;26.60;;;;;;;;;;5072536;28;20229;-76
2020/12/13 05:28:00;;;;;;;57.60;27.23;;;;;;;;;;5087181;28;20548;-73
2020/12/13 05:30:28;;;;;;;57.92;27.65;;;;;;;;;;5072916;28;20230;-77
2020/12/13 05:33:01;;;;;;;57.50;28.80;;;;;;;;;;5086265;28;20521;-75
2020/12/13 05:35:28;;;;;;;60.42;28.48;;;;;;;;;;5080458;28;20192;-77
2020/12/13 05:37:55;;;;;;;52.00;27.33;;;;;;;;;;5093138;28;20202;-74
2020/12/13 05:40:22;;;;;;;56.05;26.40;;;;;;;;;;5090836;28;20183;-74
2020/12/13 05:42:56;;;;;;;57.92;28.08;;;;;;;;;;5087161;28;20196;-77
2020/12/13 05:45:33;;;;;;;57.92;29.00;;;;;;;;;;5075105;28;20168;-75
2020/12/13 05:48:24;;;;;;;50.72;26.27;;;;;;;;;;5095591;28;20207;-74
2020/12/13 05:53:18;;;;;;;57.05;27.73;;;;;;;;;;5091638;28;20187;-76
2020/12/13 05:55:44;;;;;;;61.85;27.60;;;;;;;;;;5096474;28;20179;-75
2020/12/13 05:58:10;;;;;;;62.28;29.92;;;;;;;;;;5094464;28;20183;-75
2020/12/13 06:00:36;;;;;;;66.38;29.98;;;;;;;;;;5089467;28;20177;-74
2020/12/13 06:03:05;;;;;;;56.53;27.75;;;;;;;;;;5080424;28;20560;-73
2020/12/13 06:05:34;;;;;;;62.25;29.52;;;;;;;;;;5091159;28;20191;-77
2020/12/13 06:08:02;;;;;;;63.50;26.88;;;;;;;;;;5096103;28;20191;-77
2020/12/13 06:10:30;;;;;;;64.18;28.38;;;;;;;;;;5097050;28;20632;-75
2020/12/13 06:12:59;;;;;;;66.05;29.30;;;;;;;;;;5095994;28;20233;-76
2020/12/13 06:15:27;;;;;;;67.63;28.15;;;;;;;;;;5082678;28;20175;-76
2020/12/13 06:17:53;;;;;;;53.58;26.27;;;;;;;;;;5095818;28;20252;-74
2020/12/13 06:20:20;;;;;;;62.05;28.52;;;;;;;;;;5094607;28;20203;-76
2020/12/13 06:22:46;;;;;;;69.15;28.08;;;;;;;;;;5095254;28;20237;-76
2020/12/13 06:25:12;;;;;;;59.35;31.52;;;;;;;;;;5075702;28;20180;-75
2020/12/13 06:27:38;;;;;;;67.55;29.95;;;;;;;;;;5077586;28;20225;-75
2020/12/13 06:30:10;;;;;;;60.60;27.83;;;;;;;;;;5086795;28;20200;-74
2020/12/13 06:32:41;;;;;;;67.28;30.15;;;;;;;;;;5076508;28;20200;-73
2020/12/13 06:35:07;;;;;;;59.40;25.45;;;;;;;;;;5075437;28;20191;-76
2020/12/13 06:37:36;;;;;;;65.22;28.70;;;;;;;;;;5079034;28;20183;-74
2020/12/13 06:40:04;;;;;;;66.07;30.17;;;;;;;;;;5095831;28;20206;-75
2020/12/13 06:42:32;;;;;;;69.32;30.80;;;;;;;;;;5092708;28;20248;-74
2020/12/13 06:45:25;;;;;;;68.85;28.95;;;;;;;;;;5093726;28;20649;-73
2020/12/13 06:47:51;;;;;;;67.95;29.95;;;;;;;;;;5087115;28;20616;-73
2020/12/13 06:50:24;;;;;;;68.05;29.73;;;;;;;;;;5089587;28;20244;-74
2020/12/13 06:52:50;;;;;;;64.10;28.27;;;;;;;;;;5088818;28;20178;-73
2020/12/13 06:55:17;;;;;;;64.50;29.27;;;;;;;;;;5094661;28;20183;-75
2020/12/13 06:57:44;;;;;;;61.67;29.88;;;;;;;;;;5095468;28;20183;-73
2020/12/13 07:00:10;;;;;;;63.80;29.20;;;;;;;;;;5092093;28;20204;-76
2020/12/13 07:02:55;;;;;;;73.45;30.17;;;;;;;;;;5095919;28;20203;-75
2020/12/13 07:05:22;;;;;;;67.35;29.73;;;;;;;;;;5088520;28;20177;-75
2020/12/13 07:07:54;;;;;;;72.82;30.15;;;;;;;;;;5075392;28;20204;-73
2020/12/13 07:10:21;;;;;;;75.63;29.88;;;;;;;;;;5088701;28;20196;-75
2020/12/13 07:12:56;;;;;;;70.25;29.48;;;;;;;;;;5090685;28;20214;-75
2020/12/13 07:15:32;;;;;;;65.93;28.98;;;;;;;;;;5094765;28;20187;-73
2020/12/13 07:18:00;;;;;;;74.85;31.25;;;;;;;;;;5095037;28;20187;-72
2020/12/13 07:20:26;;;;;;;67.78;31.52;;;;;;;;;;5087732;28;20195;-75
2020/12/13 07:22:57;;;;;;;75.75;31.25;;;;;;;;;;5084339;28;20286;-74
2020/12/13 07:25:24;;;;;;;65.95;29.75;;;;;;;;;;5094647;28;20179;-74
2020/12/13 07:27:51;;;;;;;83.95;32.33;;;;;;;;;;5095192;28;20172;-76
2020/12/13 07:30:17;;;;;;;79.43;31.85;;;;;;;;;;5094862;28;20223;-75
2020/12/13 07:32:44;;;;;;;76.18;31.50;;;;;;;;;;5077105;28;20231;-75
2020/12/13 07:35:14;;;;;;;84.68;33.38;;;;;;;;;;5074295;28;20583;-73
2020/12/13 07:37:41;;;;;;;87.43;32.65;;;;;;;;;;5088544;28;20267;-72
2020/12/13 07:40:11;;;;;;;80.90;32.53;;;;;;;;;;5085639;28;20282;-75
2020/12/13 07:42:37;;;;;;;83.30;32.13;;;;;;;;;;5091301;28;20238;-74
2020/12/13 07:45:04;;;;;;;90.45;35.13;;;;;;;;;;5082355;28;20184;-75
2020/12/13 07:47:30;;;;;;;83.80;32.83;;;;;;;;;;5084925;28;20233;-73
2020/12/13 07:50:05;;;;;;;93.72;37.35;;;;;;;;;;5082866;28;20196;-76
2020/12/13 07:52:32;;;;;;;82.68;33.70;;;;;;;;;;5087309;28;20179;-75
2020/12/13 07:55:08;;;;;;;78.22;32.38;;;;;;;;;;5094147;28;20636;-73
2020/12/13 07:57:35;;;;;;;81.00;32.13;;;;;;;;;;5094006;28;20167;-74
2020/12/13 08:00:06;;;;;;;79.15;34.15;;;;;;;;;;5086490;28;20188;-72
2020/12/13 08:02:32;;;;;;;84.53;33.92;;;;;;;;;;5094161;28;20257;-76
2020/12/13 08:04:58;;;;;;;73.72;32.10;;;;;;;;;;5087901;28;20203;-73
2020/12/13 08:07:24;;;;;;;78.97;33.33;;;;;;;;;;5079139;28;20228;-75
2020/12/13 08:09:55;;;;;;;85.20;34.53;;;;;;;;;;5085598;28;20198;-77
2020/12/13 08:12:29;;;;;;;95.20;33.92;;;;;;;;;;5084180;28;20255;-75
2020/12/13 08:14:55;;;;;;;76.57;32.20;;;;;;;;;;5093748;28;20647;-72
2020/12/13 08:17:21;;;;;;;79.60;34.15;;;;;;;;;;5082644;28;20184;-75
2020/12/13 08:19:51;;;;;;;88.75;34.45;;;;;;;;;;5087330;28;20198;-78
2020/12/13 08:22:28;;;;;;;75.25;32.38;;;;;;;;;;5093595;28;20254;-75
2020/12/13 08:25:01;;;;;;;69.28;32.08;;;;;;;;;;5091852;28;20167;-76
2020/12/13 08:27:32;;;;;;;83.00;33.63;;;;;;;;;;5083912;28;20233;-76
2020/12/13 08:29:58;;;;;;;66.22;31.30;;;;;;;;;;5079090;28;20206;-76
2020/12/13 08:32:29;;;;;;;73.43;31.13;;;;;;;;;;5074321;28;20660;-74
2020/12/13 08:34:56;;;;;;;73.55;32.67;;;;;;;;;;5080916;28;20704;-73
2020/12/13 08:37:23;;;;;;;76.72;33.10;;;;;;;;;;5089335;28;20187;-76
2020/12/13 08:39:49;;;;;;;74.32;30.23;;;;;;;;;;5093334;28;20195;-75
2020/12/13 08:42:22;;;;;;;70.22;30.75;;;;;;;;;;5078245;28;20208;-76
2020/12/13 08:44:48;;;;;;;85.47;33.92;;;;;;;;;;5073689;28;20658;-77
2020/12/13 08:47:14;;;;;;;74.63;34.20;;;;;;;;;;5085954;28;20514;-74
2020/12/13 08:49:41;;;;;;;71.53;32.45;;;;;;;;;;5076894;28;20645;-77
2020/12/13 08:52:20;;;;;;;74.82;32.92;;;;;;;;;;5095501;28;20185;-76
2020/12/13 08:54:52;;;;;;;78.40;33.42;;;;;;;;;;5090974;28;20239;-72
2020/12/13 08:57:32;;;;;;;77.15;34.70;;;;;;;;;;5086255;28;20190;-74
2020/12/13 09:00:01;;;;;;;78.55;34.25;;;;;;;;;;5081069;28;20207;-76
2020/12/13 09:02:28;;;;;;;87.78;33.20;;;;;;;;;;5071433;28;20207;-74
2020/12/13 09:04:54;;;;;;;84.15;32.70;;;;;;;;;;5071274;28;20610;-76
2020/12/13 09:07:21;;;;;;;80.45;33.10;;;;;;;;;;5070531;28;20192;-72
2020/12/13 09:09:47;;;;;;;81.25;35.05;;;;;;;;;;5085203;28;20243;-77
2020/12/13 09:12:18;;;;;;;83.32;33.67;;;;;;;;;;5080706;28;20187;-74
2020/12/13 09:14:44;;;;;;;69.55;34.15;;;;;;;;;;5082752;28;20232;-74
2020/12/13 09:17:11;;;;;;;80.40;33.90;;;;;;;;;;5081550;28;20263;-75
2020/12/13 09:19:50;;;;;;;85.80;33.65;;;;;;;;;;5069080;28;20538;-76
2020/12/13 09:22:20;;;;;;;89.38;33.60;;;;;;;;;;5080467;28;20243;-74
2020/12/13 09:24:46;;;;;;;82.28;37.30;;;;;;;;;;5081930;28;20178;-74
2020/12/13 09:27:18;;;;;;;77.88;33.85;;;;;;;;;;5069523;28;20180;-75
2020/12/13 09:29:44;;;;;;;83.25;33.50;;;;;;;;;;5088146;28;20203;-74
2020/12/13 09:32:10;;;;;;;93.40;36.60;;;;;;;;;;5069227;28;20188;-74
2020/12/13 09:34:37;;;;;;;80.03;34.30;;;;;;;;;;5068702;28;20266;-75
2020/12/13 09:37:03;;;;;;;88.13;37.20;;;;;;;;;;5089084;28;20187;-76
2020/12/13 09:39:32;;;;;;;76.45;35.13;;;;;;;;;;5088977;28;20234;-77
2020/12/13 09:41:58;;;;;;;75.93;32.35;;;;;;;;;;5080519;28;20208;-77
2020/12/13 09:44:25;;;;;;;80.63;33.67;;;;;;;;;;5082686;28;20175;-75
2020/12/13 09:46:55;;;;;;;86.18;34.38;;;;;;;;;;5092976;28;20180;-75
2020/12/13 09:49:21;;;;;;;78.70;34.00;;;;;;;;;;5079285;28;20223;-74
2020/12/13 09:51:47;;;;;;;94.22;35.10;;;;;;;;;;5091386;28;20179;-75
2020/12/13 09:54:13;;;;;;;84.47;34.45;;;;;;;;;;5092307;28;20195;-76
2020/12/13 09:56:39;;;;;;;84.35;32.33;;;;;;;;;;5091670;28;20187;-76
2020/12/13 09:59:05;;;;;;;76.03;32.38;;;;;;;;;;5086478;28;20207;-77
2020/12/13 10:01:32;;;;;;;81.03;33.55;;;;;;;;;;5092944;28;20179;-76
2020/12/13 10:03:58;;;;;;;86.78;33.35;;;;;;;;;;5092424;28;20206;-75
2020/12/13 10:11:32;;;;;;;84.72;35.22;;;;;;;;;;5082153;28;20179;-76
2020/12/13 10:13:59;;;;;;;79.95;32.45;;;;;;;;;;5089386;28;20216;-73
2020/12/13 10:16:25;;;;;;;85.28;35.05;;;;;;;;;;5072374;28;20180;-77
2020/12/13 10:18:52;;;;;;;86.57;33.92;;;;;;;;;;5071003;28;20702;-75
2020/12/13 10:21:28;;;;;;;89.13;35.30;;;;;;;;;;5072636;28;20549;-78
2020/12/13 10:23:55;;;;;;;84.15;34.25;;;;;;;;;;5071959;28;20203;-76
2020/12/13 10:26:28;;;;;;;86.78;34.55;;;;;;;;;;5072440;28;20255;-75
2020/12/13 10:28:55;;;;;;;87.93;32.70;;;;;;;;;;5072141;28;20220;-74
2020/12/13 10:31:30;;;;;;;91.10;34.10;;;;;;;;;;5093415;28;20171;-75
2020/12/13 10:33:57;;;;;;;87.35;35.25;;;;;;;;;;5095006;28;20187;-74
2020/12/13 10:36:23;;;;;;;80.88;34.78;;;;;;;;;;5083454;28;20172;-75
2020/12/13 10:38:51;;;;;;;75.70;34.70;;;;;;;;;;5096300;28;20203;-76
2020/12/13 10:41:18;;;;;;;81.43;33.88;;;;;;;;;;5096282;28;20198;-75
2020/12/13 10:43:44;;;;;;;88.75;33.75;;;;;;;;;;5095576;28;20218;-76
2020/12/13 10:46:10;;;;;;;85.50;33.20;;;;;;;;;;5096229;28;20171;-75
2020/12/13 10:48:36;;;;;;;80.28;34.30;;;;;;;;;;5095493;28;20244;-76
2020/12/13 10:51:02;;;;;;;88.82;35.08;;;;;;;;;;5096532;28;20175;-74
2020/12/13 10:53:28;;;;;;;88.18;35.60;;;;;;;;;;5097319;28;20587;-74
2020/12/13 10:55:55;;;;;;;85.10;33.42;;;;;;;;;;5098126;28;20210;-76
2020/12/13 10:58:21;;;;;;;84.95;33.63;;;;;;;;;;5096958;28;20203;-76
2020/12/13 11:00:47;;;;;;;84.32;31.42;;;;;;;;;;5095883;28;20213;-73
2020/12/13 11:03:14;;;;;;;80.55;33.50;;;;;;;;;;5095546;28;20307;-76
2020/12/13 11:05:41;;;;;;;76.40;34.30;;;;;;;;;;5095797;28;20262;-75
2020/12/13 11:08:07;;;;;;;90.65;34.53;;;;;;;;;;5094107;28;20191;-75
2020/12/13 11:10:33;;;;;;;78.35;32.25;;;;;;;;;;5084787;28;20568;-76
2020/12/13 11:12:59;;;;;;;75.40;30.65;;;;;;;;;;5080743;28;20175;-76
2020/12/13 11:15:25;;;;;;;82.88;34.70;;;;;;;;;;5095533;28;20181;-75
2020/12/13 11:17:51;;;;;;;87.18;34.75;;;;;;;;;;5093939;28;20175;-74
2020/12/13 11:20:17;;;;;;;79.25;34.70;;;;;;;;;;5095179;28;20225;-76
2020/12/13 11:22:43;;;;;;;89.65;35.50;;;;;;;;;;5095205;28;20938;-76
2020/12/13 11:25:09;;;;;;;85.22;33.75;;;;;;;;;;5095021;28;20180;-76
2020/12/13 11:27:35;;;;;;;83.43;33.60;;;;;;;;;;5094945;28;20643;-76
2020/12/13 11:30:03;;;;;;;84.13;34.50;;;;;;;;;;5095312;28;20217;-76
2020/12/13 11:32:30;;;;;;;78.10;31.50;;;;;;;;;;5095312;28;20187;-73
2020/12/13 11:34:56;;;;;;;79.40;32.22;;;;;;;;;;5094563;28;20172;-74
2020/12/13 11:37:22;;;;;;;85.97;34.05;;;;;;;;;;5094781;28;20175;-78
2020/12/13 11:39:48;;;;;;;84.72;34.53;;;;;;;;;;5094663;28;20192;-75
2020/12/13 11:42:16;;;;;;;76.30;33.80;;;;;;;;;;5094380;28;20658;-77
2020/12/13 11:44:42;;;;;;;73.68;33.50;;;;;;;;;;5094379;28;20167;-74
2020/12/13 11:47:08;;;;;;;81.30;34.22;;;;;;;;;;5094710;28;20199;-73
2020/12/13 11:49:35;;;;;;;77.35;33.67;;;;;;;;;;5094664;28;20677;-78
2020/12/13 11:52:01;;;;;;;71.40;32.60;;;;;;;;;;5094519;28;20187;-75
2020/12/13 11:54:27;;;;;;;76.50;33.35;;;;;;;;;;5094175;28;20198;-76
2020/12/13 11:56:55;;;;;;;76.75;34.30;;;;;;;;;;5093353;28;20206;-74
2020/12/13 11:59:21;;;;;;;78.72;34.05;;;;;;;;;;5085105;28;20204;-73
2020/12/13 12:01:47;;;;;;;80.55;33.72;;;;;;;;;;5090335;28;20183;-75
2020/12/13 12:04:13;;;;;;;85.13;35.63;;;;;;;;;;5093994;28;20221;-74
2020/12/13 12:06:43;;;;;;;70.75;33.50;;;;;;;;;;5094416;28;20175;-75
2020/12/13 12:09:09;;;;;;;74.65;31.55;;;;;;;;;;5095017;28;20236;-77
2020/12/13 12:11:35;;;;;;;81.00;34.83;;;;;;;;;;5079102;28;20641;-74
2020/12/13 12:14:01;;;;;;;78.88;34.00;;;;;;;;;;5088075;28;20532;-75
2020/12/13 12:16:30;;;;;;;71.72;34.05;;;;;;;;;;5094615;28;20517;-75
2020/12/13 12:18:57;;;;;;;83.57;35.97;;;;;;;;;;5094168;28;20199;-76
2020/12/13 12:21:25;;;;;;;85.10;34.85;;;;;;;;;;5094034;28;20201;-76
2020/12/13 12:23:51;;;;;;;74.50;35.20;;;;;;;;;;5093403;28;20199;-75
2020/12/13 12:26:19;;;;;;;76.53;32.70;;;;;;;;;;5093876;28;20168;-75
2020/12/13 12:28:45;;;;;;;76.53;32.70;;;;;;;;;;5093621;28;20188;-75
2020/12/13 12:31:16;;;;;;;76.60;34.20;;;;;;;;;;5080124;28;20250;-77
2020/12/13 12:33:42;;;;;;;77.70;32.92;;;;;;;;;;5093542;28;20179;-75
2020/12/13 12:36:13;;;;;;;71.43;33.03;;;;;;;;;;5093841;28;20540;-75
2020/12/13 12:38:39;;;;;;;73.35;33.83;;;;;;;;;;5093720;28;20195;-75
2020/12/13 12:41:05;;;;;;;74.88;33.40;;;;;;;;;;5093653;28;20178;-78
2020/12/13 12:43:31;;;;;;;76.38;34.47;;;;;;;;;;5093080;28;20199;-75
2020/12/13 12:45:57;;;;;;;67.00;32.03;;;;;;;;;;5093604;28;20175;-75
2020/12/13 12:48:24;;;;;;;73.65;33.63;;;;;;;;;;5093439;28;20689;-74
2020/12/13 12:50:50;;;;;;;75.90;33.15;;;;;;;;;;5093513;28;20198;-74
2020/12/13 12:53:16;;;;;;;74.03;33.03;;;;;;;;;;5093362;28;20559;-74
2020/12/13 12:55:42;;;;;;;83.35;34.40;;;;;;;;;;5092690;28;20612;-75
2020/12/13 12:58:09;;;;;;;80.35;33.45;;;;;;;;;;5093349;28;20537;-76
2020/12/13 13:00:48;;;;;;;75.90;33.13;;;;;;;;;;5081016;28;20178;-74
2020/12/13 13:03:14;;;;;;;79.72;32.85;;;;;;;;;;5096880;28;20627;-77
2020/12/13 13:10:49;;;;;;;75.60;33.97;;;;;;;;;;5088456;28;20187;-73
2020/12/13 13:13:15;;;;;;;82.35;36.28;;;;;;;;;;5081149;28;20720;-73
2020/12/13 13:15:55;;;;;;;78.03;36.28;;;;;;;;;;5093160;28;20187;-77
2020/12/13 13:18:23;;;;;;;98.43;39.65;;;;;;;;;;5093707;28;20207;-74
2020/12/13 13:20:50;;;;;;;95.53;37.50;;;;;;;;;;5093572;28;20183;-75
2020/12/13 13:23:16;;;;;;;89.07;37.25;;;;;;;;;;5093365;28;20286;-78
2020/12/13 13:25:43;;;;;;;79.55;33.33;;;;;;;;;;5092700;28;20203;-76
2020/12/13 13:28:09;;;;;;;77.95;35.20;;;;;;;;;;5093144;28;20181;-75
2020/12/13 13:30:35;;;;;;;79.55;34.10;;;;;;;;;;5092925;28;20171;-77
2020/12/13 13:33:01;;;;;;;81.63;33.83;;;;;;;;;;5093358;28;20198;-77
2020/12/13 13:35:27;;;;;;;76.13;34.28;;;;;;;;;;5092481;28;20172;-77
2020/12/13 13:37:53;;;;;;;73.50;34.55;;;;;;;;;;5093021;28;20258;-76
2020/12/13 13:40:19;;;;;;;71.90;34.20;;;;;;;;;;5092832;28;20203;-75
2020/12/13 13:42:45;;;;;;;72.47;33.78;;;;;;;;;;5093252;28;20207;-76
2020/12/13 13:46:11;;;;;;;74.57;34.80;;;;;;;;;;5092371;28;20636;-75
2020/12/13 13:50:45;;;;;;;73.93;34.78;;;;;;;;;;5080837;28;20377;-76
2020/12/13 13:53:11;;;;;;;75.78;33.60;;;;;;;;;;5072181;28;20187;-74
2020/12/13 13:55:41;;;;;;;69.55;32.88;;;;;;;;;;5087546;28;20180;-79
2020/12/13 13:58:09;;;;;;;71.10;33.22;;;;;;;;;;5088430;28;20214;-75
2020/12/13 14:00:35;;;;;;;72.65;33.38;;;;;;;;;;5084361;28;20641;-74
2020/12/13 14:03:01;;;;;;;76.70;34.50;;;;;;;;;;5076607;28;20575;-78
2020/12/13 14:05:28;;;;;;;73.93;34.35;;;;;;;;;;5090079;28;20187;-81
2020/12/13 14:10:29;;;;;;;79.28;36.05;;;;;;;;;;5080434;28;20238;-77
2020/12/13 14:12:55;;;;;;;78.47;35.15;;;;;;;;;;5079548;28;20179;-74
2020/12/13 14:15:21;;;;;;;79.70;34.53;;;;;;;;;;5080459;28;20183;-77
2020/12/13 14:17:47;;;;;;;74.15;34.28;;;;;;;;;;5077697;28;20187;-74
2020/12/13 14:20:13;;;;;;;79.80;37.80;;;;;;;;;;5079349;28;20203;-79
2020/12/13 14:22:39;;;;;;;79.93;34.95;;;;;;;;;;5074301;28;20215;-79
2020/12/13 14:25:05;;;;;;;80.18;34.25;;;;;;;;;;5080396;28;20171;-76
2020/12/13 14:27:31;;;;;;;79.30;34.28;;;;;;;;;;5087905;28;20225;-79
2020/12/13 14:29:57;;;;;;;84.95;36.38;;;;;;;;;;5072143;28;20242;-80
2020/12/13 14:32:24;;;;;;;74.00;32.38;;;;;;;;;;5072372;28;20773;-78
2020/12/13 14:34:50;;;;;;;96.60;37.95;;;;;;;;;;5071927;28;20191;-78
2020/12/13 14:37:16;;;;;;;78.32;34.97;;;;;;;;;;5072040;28;20264;-78